Domov               UVHVVR             MKGP            O straneh              
ZDRAVSTVENO VARSTVO RASTLIN
  MREŽA AGROMET. POSTAJ
 ► PROGNOSTIČNA OBVESTILA
AGROMETEOROLOŠKI PODATKI -
ARSO
OBVLADOVANJE TVEGANJ ZARADI
NEUGODNIH VREMENSKIH RAZMER
  ► NARAVNE NESREČE
  ► SUŠA/MOČA
  ► NAMAKANJE
  ► ŽLED (gozdarstvo)
KARTOGRAFSKI PRIKAZI
SPLETNE POVEZAVE
PROJEKTI IN PUBLIKACIJE

AGROMETEOROLOŠKA MREŽA: VREMENSKE POSTAJE IN FENOLOŠKA OPAZOVANJA

Pregled podatkov za lokacijo Potoče, meteorološka postaja 861648

Pregled senzorjev na lokaciji

ID Ime Zadnja
vrednost
Datum
zadnje
spremembe
Tip
senzorja
4072 Omočenost lista (U) 9 U 19.9.2018 05:30 A730WET
4073 Padavine (mm) 0 mm 19.9.2018 05:30 Rain-O-Matic
4071 Relativna vlaga 2 m (% RH) 97,76 % RH 19.9.2018 05:30 50YA
4070 Temperatura 2 m (°C) 13,19 °C 19.9.2018 05:30 50YA

Pregled podatkov zadnjih 24 ur

Zap.
št.
Datum in čas Potoče
Omočenost
lista
Padavine Relativna
vlaga
2
m
Temperatura
2
m
1 19.9.2018 05:30
2 19.9.2018 05:00
3 19.9.2018 04:30
4 19.9.2018 04:00
5 19.9.2018 03:30 9 0 97,2 13,3
6 19.9.2018 03:00 9 0 97,1 13,6
7 19.9.2018 02:30 9 0 97 13,8
8 19.9.2018 02:00 9 0 96,8 14,1
9 19.9.2018 01:30 8 0 96,3 14,2
10 19.9.2018 01:00 8 0 96,1 14,5
11 19.9.2018 00:30 8 0 96 14,8
12 19.9.2018 00:00 8 0 95,6 15,2
13 18.9.2018 23:30 8 0 95,5 15,6
14 18.9.2018 23:00 9 0 95,3 16
15 18.9.2018 22:30 8 0 94,8 16,4
16 18.9.2018 22:00 7 0 93,3 16,6
17 18.9.2018 21:30 6 0 93,1 17,1
18 18.9.2018 21:00 5 0 92,6 17,8
19 18.9.2018 20:30 3 0 91,1 18,4
20 18.9.2018 20:00 2 0 90,4 19
21 18.9.2018 19:30 0 0 88,5 19,7
22 18.9.2018 19:00 0 0 84,5 20,4
23 18.9.2018 18:30 0 0 74,4 22,6
24 18.9.2018 18:00 0 0 64,6 24,9
25 18.9.2018 17:30 0 0 57,5 26,8
26 18.9.2018 17:00 0 0 50,3 29,6
27 18.9.2018 16:30 0 0 49 29,9
28 18.9.2018 16:00 0 0 51,5 29,9
29 18.9.2018 15:30 0 0 49,3 29,6
30 18.9.2018 15:00 0 0 50,9 29,2
31 18.9.2018 14:30 0 0 49,4 29,3
32 18.9.2018 14:00 0 0 51,6 29,7
33 18.9.2018 13:30 0 0 52,6 29,5
34 18.9.2018 13:00 0 0 53 29,2
35 18.9.2018 12:30 0 0 53,4 30,1
36 18.9.2018 12:00 0 0 54,4 29,5
37 18.9.2018 11:30 0 0 56 29,2
38 18.9.2018 11:00 0 0 56,9 28,5
39 18.9.2018 10:30 0 0 56,7 27,9
40 18.9.2018 10:00 0 0 61,1 28
41 18.9.2018 09:30 0 0 64,1 26,8
42 18.9.2018 09:00 2 0 66,6 25,7
43 18.9.2018 08:30 10 0 77,9 22,9
44 18.9.2018 08:00 10 0 98,7 18,5
45 18.9.2018 07:30 10 0 99,1 15,6
46 18.9.2018 07:00 10 0 98,8 14,1
47 18.9.2018 06:30 9 0 98,4 13,2
48 18.9.2018 06:00 9 0 98,2 13
© 2011 Ministrstvo za kmetijstvo, gozdarstvo in prehrano. Vse pravice pridržane.